WIF557 ENTC-ENAT

Flight info

Callsign WIF557
Flight time 0h 25m
Altitude 15000
Route ERPUG DCT UDSAM
Aircraft DH8D/M-SDE2E3FGRY/H

Departure

Time 2026-05-06 08:08
Airport Tromsø Airport (ENTC)

Arrival

Time 2026-05-06 08:33
Airport Alta Airport (ENAT)
Time Latitude Longitude Altitude Speed Heading
2026-05-06 07:57 69.67768 18.90788 8 ft 0 kts 285°
2026-05-06 08:00 69.67768 18.90787 8 ft 0 kts 285°
2026-05-06 08:01 69.67767 18.90794 7 ft 2 kts 285°
2026-05-06 08:02 69.67763 18.90835 4 ft 2 kts 283°
2026-05-06 08:02 69.67760 18.90877 2 ft 2 kts 283°
2026-05-06 08:02 69.67757 18.90919 0 ft 2 kts 283°
2026-05-06 08:02 69.67755 18.90936 -1 ft 0 kts 283°
2026-05-06 08:05 69.67749 18.90917 8 ft 2 kts 181°
2026-05-06 08:06 69.67728 18.91004 9 ft 8 kts 127°
2026-05-06 08:06 69.67665 18.91062 9 ft 10 kts 178°
2026-05-06 08:06 69.67630 18.91201 9 ft 9 kts 102°
2026-05-06 08:06 69.67612 18.91368 10 ft 7 kts 101°
2026-05-06 08:07 69.67625 18.91421 10 ft 0 kts 13°
2026-05-06 08:07 69.67671 18.91452 10 ft 30 kts 14°
2026-05-06 08:08 69.68225 18.91815 7 ft 126 kts 14°
2026-05-06 08:08 69.69194 18.92584 349 ft 157 kts 20°
2026-05-06 08:08 69.70208 18.93848 1126 ft 168 kts 33°
2026-05-06 08:08 69.71112 18.95923 2011 ft 173 kts 41°
2026-05-06 08:09 69.72134 18.97644 2810 ft 181 kts 11°
2026-05-06 08:09 69.73373 18.97825 3747 ft 184 kts
2026-05-06 08:09 69.74425 18.99572 4610 ft 187 kts 54°
2026-05-06 08:09 69.74980 19.02954 5379 ft 192 kts 64°
2026-05-06 08:10 69.75538 19.06453 6117 ft 194 kts 63°
2026-05-06 08:10 69.76124 19.09917 6859 ft 196 kts 61°
2026-05-06 08:10 69.76742 19.13416 7579 ft 200 kts 60°
2026-05-06 08:10 69.77398 19.17012 8286 ft 204 kts 59°
2026-05-06 08:11 69.78067 19.20593 8992 ft 209 kts 59°
2026-05-06 08:11 69.78770 19.24296 9724 ft 212 kts 58°
2026-05-06 08:11 69.79480 19.27996 10432 ft 216 kts 58°
2026-05-06 08:11 69.80092 19.31920 11156 ft 221 kts 76°
2026-05-06 08:12 69.80152 19.36394 11865 ft 225 kts 91°
2026-05-06 08:12 69.80087 19.40889 12589 ft 228 kts 91°
2026-05-06 08:12 69.80025 19.45422 13349 ft 230 kts 91°
2026-05-06 08:12 69.79963 19.50115 13969 ft 240 kts 92°
2026-05-06 08:13 69.79900 19.55126 14218 ft 263 kts 91°
2026-05-06 08:13 69.79837 19.60604 14278 ft 281 kts 92°
2026-05-06 08:13 69.79774 19.66280 14297 ft 286 kts 92°
2026-05-06 08:13 69.79709 19.72107 14304 ft 290 kts 92°
2026-05-06 08:14 69.79642 19.77908 14308 ft 293 kts 92°
2026-05-06 08:14 69.79571 19.83844 14309 ft 296 kts 92°
2026-05-06 08:14 69.79497 19.89831 14292 ft 299 kts 92°
2026-05-06 08:14 69.79422 19.95777 14287 ft 301 kts 92°
2026-05-06 08:15 69.79447 20.01878 14276 ft 303 kts 84°
2026-05-06 08:15 69.79752 20.07852 14258 ft 304 kts 80°
2026-05-06 08:15 69.80100 20.13923 14255 ft 305 kts 80°
2026-05-06 08:15 69.80442 20.19919 14244 ft 306 kts 80°
2026-05-06 08:16 69.80785 20.26009 14237 ft 307 kts 80°
2026-05-06 08:16 69.81124 20.32100 14258 ft 307 kts 80°
2026-05-06 08:16 69.81457 20.38165 14272 ft 307 kts 80°
2026-05-06 08:16 69.81786 20.44212 14284 ft 307 kts 80°
2026-05-06 08:17 69.82116 20.50345 14301 ft 308 kts 80°
2026-05-06 08:17 69.82443 20.56489 14292 ft 308 kts 80°
2026-05-06 08:17 69.82736 20.62548 14277 ft 309 kts 83°
2026-05-06 08:17 69.82902 20.68789 14260 ft 309 kts 86°
2026-05-06 08:18 69.83128 20.74927 14252 ft 309 kts 81°
2026-05-06 08:18 69.83457 20.81052 14271 ft 309 kts 81°
2026-05-06 08:18 69.83794 20.87231 14283 ft 309 kts 81°
2026-05-06 08:18 69.84127 20.93320 14291 ft 309 kts 81°
2026-05-06 08:19 69.84463 20.99496 14306 ft 310 kts 81°
2026-05-06 08:19 69.84793 21.05611 14293 ft 303 kts 80°
2026-05-06 08:19 69.85113 21.11552 14300 ft 302 kts 80°
2026-05-06 08:19 69.85437 21.17623 14294 ft 305 kts 80°
2026-05-06 08:20 69.85759 21.23695 14289 ft 307 kts 80°
2026-05-06 08:20 69.86079 21.29766 14283 ft 309 kts 80°
2026-05-06 08:20 69.86403 21.35964 14276 ft 311 kts 80°
2026-05-06 08:20 69.86726 21.42167 14271 ft 312 kts 80°
2026-05-06 08:21 69.87132 21.48302 14246 ft 312 kts 70°
2026-05-06 08:21 69.88268 21.53550 14288 ft 304 kts 44°
2026-05-06 08:21 69.89711 21.57794 14267 ft 294 kts 41°
2026-05-06 08:21 69.91149 21.61924 14267 ft 285 kts 41°
2026-05-06 08:22 69.92536 21.65899 14267 ft 278 kts 41°
2026-05-06 08:22 69.93909 21.69838 14072 ft 279 kts 42°
2026-05-06 08:22 69.95290 21.73814 13859 ft 280 kts 42°
2026-05-06 08:22 69.96667 21.77793 13772 ft 276 kts 42°
2026-05-06 08:23 69.98023 21.81718 13483 ft 280 kts 42°
2026-05-06 08:23 69.99427 21.85796 13084 ft 286 kts 42°
2026-05-06 08:23 70.00826 21.89870 12448 ft 290 kts 43°
2026-05-06 08:23 70.02009 21.94580 11511 ft 296 kts 62°
2026-05-06 08:24 70.02734 22.00156 10828 ft 291 kts 70°
2026-05-06 08:24 70.03062 22.05892 10296 ft 283 kts 86°
2026-05-06 08:24 70.03024 22.11484 9845 ft 272 kts 91°
2026-05-06 08:24 70.02903 22.16883 9436 ft 262 kts 92°
2026-05-06 08:25 70.02766 22.22085 9051 ft 251 kts 93°
2026-05-06 08:25 70.02632 22.27069 8672 ft 242 kts 92°
2026-05-06 08:25 70.02507 22.31833 8326 ft 232 kts 92°
2026-05-06 08:25 70.02391 22.36388 8001 ft 221 kts 93°
2026-05-06 08:26 70.02293 22.40764 7671 ft 208 kts 89°
2026-05-06 08:26 70.02576 22.44709 7363 ft 190 kts 66°
2026-05-06 08:26 70.03083 22.48113 6909 ft 185 kts 64°
2026-05-06 08:26 70.03590 22.51510 6364 ft 183 kts 64°
2026-05-06 08:27 70.04102 22.54894 5874 ft 185 kts 65°
2026-05-06 08:27 70.04621 22.58451 5733 ft 201 kts 65°
2026-05-06 08:27 70.05202 22.62373 5539 ft 218 kts 65°
2026-05-06 08:27 70.05824 22.66556 5327 ft 233 kts 66°
2026-05-06 08:28 70.06474 22.70906 5054 ft 245 kts 66°
2026-05-06 08:28 70.07137 22.75267 4731 ft 227 kts 65°
2026-05-06 08:28 70.07766 22.79347 4390 ft 210 kts 65°
2026-05-06 08:28 70.08104 22.83229 4048 ft 193 kts 95°
2026-05-06 08:29 70.07646 22.86821 3746 ft 186 kts 117°
2026-05-06 08:29 70.07037 22.90050 3435 ft 182 kts 118°
2026-05-06 08:29 70.06421 22.93302 3266 ft 183 kts 118°
2026-05-06 08:29 70.05796 22.96547 3165 ft 181 kts 119°
2026-05-06 08:30 70.05177 22.99721 3073 ft 178 kts 119°
2026-05-06 08:30 70.04560 23.02850 2991 ft 176 kts 119°
2026-05-06 08:30 70.03947 23.05929 2915 ft 176 kts 119°
2026-05-06 08:30 70.03318 23.09069 2760 ft 184 kts 119°
2026-05-06 08:31 70.02679 23.12260 2508 ft 180 kts 119°
2026-05-06 08:31 70.02058 23.15365 2182 ft 174 kts 119°
2026-05-06 08:31 70.01448 23.18390 1804 ft 173 kts 119°
2026-05-06 08:31 70.00845 23.21368 1431 ft 171 kts 119°
2026-05-06 08:32 70.00241 23.24335 1073 ft 168 kts 120°
2026-05-06 08:32 69.99668 23.27136 773 ft 154 kts 120°
2026-05-06 08:32 69.99143 23.29718 466 ft 144 kts 118°
2026-05-06 08:32 69.98638 23.32193 252 ft 141 kts 120°
2026-05-06 08:33 69.98147 23.34578 40 ft 134 kts 120°
2026-05-06 08:33 69.97742 23.36542 6 ft 86 kts 119°
2026-05-06 08:33 69.97510 23.37637 6 ft 33 kts 121°
2026-05-06 08:33 69.97471 23.37882 5 ft 6 kts 89°
2026-05-06 08:34 69.97448 23.37905 5 ft 4 kts 254°
2026-05-06 08:34 69.97499 23.37696 6 ft 11 kts 303°
2026-05-06 08:34 69.97542 23.37496 6 ft 10 kts 301°
2026-05-06 08:35 69.97577 23.37326 6 ft 9 kts 301°
2026-05-06 08:35 69.97609 23.37174 6 ft 8 kts 301°
2026-05-06 08:35 69.97636 23.37036 6 ft 7 kts 300°
2026-05-06 08:35 69.97663 23.36906 7 ft 7 kts 300°
2026-05-06 08:36 69.97688 23.36782 6 ft 7 kts 300°
2026-05-06 08:36 69.97713 23.36659 6 ft 7 kts 301°
2026-05-06 08:36 69.97758 23.36450 6 ft 18 kts 302°
2026-05-06 08:36 69.97824 23.36134 7 ft 18 kts 300°
2026-05-06 08:37 69.97897 23.35790 7 ft 21 kts 300°
2026-05-06 08:37 69.97948 23.35435 8 ft 16 kts 250°
2026-05-06 08:37 69.97891 23.35291 9 ft 9 kts 223°
2026-05-06 08:37 69.97868 23.35127 10 ft 8 kts 254°
2026-05-06 08:38 69.97841 23.34998 10 ft 7 kts 213°
2026-05-06 08:38 69.97808 23.34936 10 ft 3 kts 211°
2026-05-06 08:38 69.97797 23.34918 10 ft 0 kts 210°